Airfield :
LOGIN :

Register | Disclaimer

   EN    FR    IT 

 










Legend :    VFR   Marginal VFR   IFR   Intensive IFR   Very Intensive IFR
Visi :
Ceiling :
>= 8 km
>= 3000ft
5 to 8 km
1000 to 3000 ft
1500m to 5 km
500 to 1000 ft
800 to 1500m
200 to 500 ft
< 800m
< 200 ft
Symbols :   Thunderstorms  Fog  Heavy snow  Heavy precipitations  Wind > 20 kt
SIGMETs :     Misc.  Thunderstorms  Icing  Turbulence  Mountain Waves  Volcanic Ashes






- Airport Elevation : 2031 ft


LEGT - Madrid Getafe

CURRENT METAR :
  • 290730Z 26008KT 220V300 CAVOK 23/06 Q1010

EXPIRED METARs :
  • 290700Z 23003KT 170V300 CAVOK 22/06 Q1010
  • 290630Z 21003KT 160V240 CAVOK 20/06 Q1010
  • 290600Z 26003KT CAVOK 18/06 Q1010
  • 290530Z VRB01KT CAVOK 16/05 Q1010

TAF TAF LEGT
Valid from the 29 at 06:00 until the 30 at 06:00 UTC


290500Z 2906/3006 VRB05KT 9999 FEW045 TX33/2915Z TN14/3005Z
BECMG 2908/2910 24010KT
PROB30
TEMPO 2915/2919 FEW040CB



MET'MAP, your aeronautical weather chart ! - Copyright ORBIFLY December 2007 - Disclaimer

ORBIFLY MET'MAP TEAM :

Programming & Development : Alexandra Zaïnal
Original concept : Baudouin d'Aumeries
Technical & hardware support : Manuel Goepfert
Assistance : Marc-Olivier Méhu

Contact : metmap@orbifly.com




SOURCES & CREDITS :

   NOAA